sensor_id;sensor_type;location;lat;lon;timestamp;pressure;altitude;pressure_sealevel;temperature;humidity
65019;BME280;66069;51.164;-114.452;2024-02-26T00:00:58;85369.25;;;16.69;50.11
65019;BME280;66069;51.164;-114.452;2024-02-26T00:03:24;85383.78;;;16.74;50.09
65019;BME280;66069;51.164;-114.452;2024-02-26T00:05:50;85375.38;;;16.75;50.22
65019;BME280;66069;51.164;-114.452;2024-02-26T00:08:16;85344.34;;;16.61;50.24
65019;BME280;66069;51.164;-114.452;2024-02-26T00:10:43;85359.72;;;16.72;50.17
65019;BME280;66069;51.164;-114.452;2024-02-26T00:13:09;85364.28;;;16.71;50.06
65019;BME280;66069;51.164;-114.452;2024-02-26T00:15:35;85341.81;;;16.66;49.97
65019;BME280;66069;51.164;-114.452;2024-02-26T00:18:01;85351.06;;;16.71;50.02
65019;BME280;66069;51.164;-114.452;2024-02-26T00:20:28;85343.72;;;16.66;50.04
65019;BME280;66069;51.164;-114.452;2024-02-26T00:22:54;85344.91;;;16.65;50.05
65019;BME280;66069;51.164;-114.452;2024-02-26T00:25:20;85329.03;;;16.50;50.09
65019;BME280;66069;51.164;-114.452;2024-02-26T00:27:46;85343.78;;;16.57;49.98
65019;BME280;66069;51.164;-114.452;2024-02-26T00:30:13;85337.50;;;16.54;50.14
65019;BME280;66069;51.164;-114.452;2024-02-26T00:32:39;85341.63;;;16.55;50.09
65019;BME280;66069;51.164;-114.452;2024-02-26T00:35:06;85341.63;;;16.55;50.22
65019;BME280;66069;51.164;-114.452;2024-02-26T00:37:32;85345.44;;;16.54;50.21
65019;BME280;66069;51.164;-114.452;2024-02-26T00:39:58;85339.13;;;16.52;50.34
65019;BME280;66069;51.164;-114.452;2024-02-26T00:42:24;85335.78;;;16.51;50.31
65019;BME280;66069;51.164;-114.452;2024-02-26T00:44:51;85334.50;;;16.47;50.53
65019;BME280;66069;51.164;-114.452;2024-02-26T00:47:17;85340.69;;;16.43;50.87
65019;BME280;66069;51.164;-114.452;2024-02-26T00:49:43;85317.63;;;16.44;50.78
65019;BME280;66069;51.164;-114.452;2024-02-26T00:52:09;85316.81;;;16.53;50.84
65019;BME280;66069;51.164;-114.452;2024-02-26T00:54:35;85310.81;;;16.52;50.81
65019;BME280;66069;51.164;-114.452;2024-02-26T00:57:02;85303.13;;;16.54;50.79
65019;BME280;66069;51.164;-114.452;2024-02-26T00:59:28;85305.31;;;16.56;50.88
65019;BME280;66069;51.164;-114.452;2024-02-26T01:01:55;85301.84;;;16.50;50.79
65019;BME280;66069;51.164;-114.452;2024-02-26T01:04:21;85309.63;;;16.53;50.71
65019;BME280;66069;51.164;-114.452;2024-02-26T01:06:47;85295.56;;;16.47;50.67
65019;BME280;66069;51.164;-114.452;2024-02-26T01:09:14;85307.41;;;16.52;50.67
65019;BME280;66069;51.164;-114.452;2024-02-26T01:11:40;85313.81;;;16.60;50.67
65019;BME280;66069;51.164;-114.452;2024-02-26T01:14:06;85306.50;;;16.55;50.76
65019;BME280;66069;51.164;-114.452;2024-02-26T01:16:32;85315.72;;;16.59;50.70
65019;BME280;66069;51.164;-114.452;2024-02-26T01:18:58;85310.59;;;16.56;50.64
65019;BME280;66069;51.164;-114.452;2024-02-26T01:21:25;85323.38;;;16.57;50.78
65019;BME280;66069;51.164;-114.452;2024-02-26T01:23:54;85328.47;;;16.61;50.56
65019;BME280;66069;51.164;-114.452;2024-02-26T01:26:21;85340.97;;;16.60;50.53
65019;BME280;66069;51.164;-114.452;2024-02-26T01:28:48;85333.94;;;16.57;50.53
65019;BME280;66069;51.164;-114.452;2024-02-26T01:31:14;85328.13;;;16.53;50.60
65019;BME280;66069;51.164;-114.452;2024-02-26T01:33:41;85342.34;;;16.56;50.43
65019;BME280;66069;51.164;-114.452;2024-02-26T01:36:07;85347.06;;;16.52;50.49
65019;BME280;66069;51.164;-114.452;2024-02-26T01:38:33;85325.91;;;16.37;50.41
65019;BME280;66069;51.164;-114.452;2024-02-26T01:41:00;85342.97;;;16.51;50.23
65019;BME280;66069;51.164;-114.452;2024-02-26T01:43:27;85336.59;;;16.42;50.12
65019;BME280;66069;51.164;-114.452;2024-02-26T01:45:53;85330.84;;;16.44;50.18
65019;BME280;66069;51.164;-114.452;2024-02-26T01:48:20;85322.81;;;16.38;49.87
65019;BME280;66069;51.164;-114.452;2024-02-26T01:50:47;85324.00;;;16.37;49.72
65019;BME280;66069;51.164;-114.452;2024-02-26T01:53:13;85315.72;;;16.30;49.65
65019;BME280;66069;51.164;-114.452;2024-02-26T01:55:40;85325.66;;;16.35;49.72
65019;BME280;66069;51.164;-114.452;2024-02-26T01:58:07;85320.53;;;16.31;49.94
65019;BME280;66069;51.164;-114.452;2024-02-26T02:00:33;85327.00;;;16.30;49.60
65019;BME280;66069;51.164;-114.452;2024-02-26T02:03:01;85308.03;;;16.17;49.42
65019;BME280;66069;51.164;-114.452;2024-02-26T02:05:29;85328.09;;;16.24;49.76
65019;BME280;66069;51.164;-114.452;2024-02-26T02:07:55;85319.72;;;16.25;49.78
65019;BME280;66069;51.164;-114.452;2024-02-26T02:10:21;85329.28;;;16.23;49.46
65019;BME280;66069;51.164;-114.452;2024-02-26T02:12:51;85339.13;;;16.22;49.37
65019;BME280;66069;51.164;-114.452;2024-02-26T02:15:18;85344.13;;;16.20;49.48
65019;BME280;66069;51.164;-114.452;2024-02-26T02:17:44;85335.47;;;16.20;49.25
65019;BME280;66069;51.164;-114.452;2024-02-26T02:20:23;85342.88;;;16.15;49.28
65019;BME280;66069;51.164;-114.452;2024-02-26T02:22:50;85343.59;;;16.16;49.58
65019;BME280;66069;51.164;-114.452;2024-02-26T02:25:16;85343.75;;;16.12;49.57
65019;BME280;66069;51.164;-114.452;2024-02-26T02:27:43;85339.19;;;16.13;49.72
65019;BME280;66069;51.164;-114.452;2024-02-26T02:30:09;85335.09;;;16.12;49.56
65019;BME280;66069;51.164;-114.452;2024-02-26T02:32:38;85330.28;;;16.10;49.59
65019;BME280;66069;51.164;-114.452;2024-02-26T02:35:05;85329.72;;;16.06;49.78
65019;BME280;66069;51.164;-114.452;2024-02-26T02:37:32;85325.16;;;16.07;49.76
65019;BME280;66069;51.164;-114.452;2024-02-26T02:39:58;85311.56;;;15.99;49.80
65019;BME280;66069;51.164;-114.452;2024-02-26T02:42:24;85317.69;;;16.05;49.71
65019;BME280;66069;51.164;-114.452;2024-02-26T02:44:51;85321.50;;;16.04;49.62
65019;BME280;66069;51.164;-114.452;2024-02-26T02:47:17;85323.88;;;16.02;49.82
65019;BME280;66069;51.164;-114.452;2024-02-26T02:49:43;85326.97;;;16.01;49.77
65019;BME280;66069;51.164;-114.452;2024-02-26T02:52:09;85322.13;;;15.99;49.70
65019;BME280;66069;51.164;-114.452;2024-02-26T02:54:35;85313.94;;;15.97;49.83
65019;BME280;66069;51.164;-114.452;2024-02-26T02:57:04;85310.56;;;15.97;49.83
65019;BME280;66069;51.164;-114.452;2024-02-26T02:59:30;85303.28;;;15.92;49.69
65019;BME280;66069;51.164;-114.452;2024-02-26T03:01:56;85306.63;;;15.92;49.62
65019;BME280;66069;51.164;-114.452;2024-02-26T03:04:22;85305.91;;;15.92;49.60
65019;BME280;66069;51.164;-114.452;2024-02-26T03:06:48;85322.31;;;15.96;49.85
65019;BME280;66069;51.164;-114.452;2024-02-26T03:09:15;85314.09;;;15.94;49.89
65019;BME280;66069;51.164;-114.452;2024-02-26T03:11:41;85317.22;;;15.92;49.91
65019;BME280;66069;51.164;-114.452;2024-02-26T03:14:07;85309.28;;;15.92;49.97
65019;BME280;66069;51.164;-114.452;2024-02-26T03:16:35;85317.22;;;15.92;49.97
65019;BME280;66069;51.164;-114.452;2024-02-26T03:19:01;85320.13;;;15.94;50.50
65019;BME280;66069;51.164;-114.452;2024-02-26T03:21:28;85305.34;;;15.87;50.20
65019;BME280;66069;51.164;-114.452;2024-02-26T03:23:55;85313.13;;;15.91;50.29
65019;BME280;66069;51.164;-114.452;2024-02-26T03:26:21;85325.13;;;15.92;50.38
65019;BME280;66069;51.164;-114.452;2024-02-26T03:28:48;85324.41;;;15.92;50.26
65019;BME280;66069;51.164;-114.452;2024-02-26T03:31:14;85311.81;;;15.86;50.33
65019;BME280;66069;51.164;-114.452;2024-02-26T03:33:40;85326.31;;;15.91;50.27
65019;BME280;66069;51.164;-114.452;2024-02-26T03:36:06;85312.09;;;15.88;50.34
65019;BME280;66069;51.164;-114.452;2024-02-26T03:38:33;85289.13;;;15.80;50.25
65019;BME280;66069;51.164;-114.452;2024-02-26T03:40:59;85314.00;;;15.88;50.40
65019;BME280;66069;51.164;-114.452;2024-02-26T03:43:26;85297.44;;;15.87;50.19
65019;BME280;66069;51.164;-114.452;2024-02-26T03:45:52;85283.66;;;15.83;50.24
65019;BME280;66069;51.164;-114.452;2024-02-26T03:48:18;85282.50;;;15.84;50.47
65019;BME280;66069;51.164;-114.452;2024-02-26T03:50:44;85273.34;;;15.71;50.24
65019;BME280;66069;51.164;-114.452;2024-02-26T03:53:11;85294.69;;;15.82;50.15
65019;BME280;66069;51.164;-114.452;2024-02-26T03:55:38;85287.47;;;15.82;50.23
65019;BME280;66069;51.164;-114.452;2024-02-26T03:58:04;85294.22;;;15.83;50.36
65019;BME280;66069;51.164;-114.452;2024-02-26T04:00:30;85291.31;;;15.81;50.19
65019;BME280;66069;51.164;-114.452;2024-02-26T04:02:57;85296.84;;;15.83;50.24
65019;BME280;66069;51.164;-114.452;2024-02-26T04:05:23;85295.88;;;15.81;50.21
65019;BME280;66069;51.164;-114.452;2024-02-26T04:07:49;85290.09;;;15.68;50.34
65019;BME280;66069;51.164;-114.452;2024-02-26T04:10:15;85307.63;;;15.80;50.27
65019;BME280;66069;51.164;-114.452;2024-02-26T04:12:42;85304.72;;;15.78;50.35
65019;BME280;66069;51.164;-114.452;2024-02-26T04:15:10;85307.78;;;15.76;50.37
65019;BME280;66069;51.164;-114.452;2024-02-26T04:17:37;85307.63;;;15.80;50.46
65019;BME280;66069;51.164;-114.452;2024-02-26T04:20:04;85307.63;;;15.80;50.57
65019;BME280;66069;51.164;-114.452;2024-02-26T04:22:31;85303.94;;;15.77;50.53
65019;BME280;66069;51.164;-114.452;2024-02-26T04:24:58;85292.50;;;15.80;50.58
65019;BME280;66069;51.164;-114.452;2024-02-26T04:27:24;85292.38;;;15.75;50.63
65019;BME280;66069;51.164;-114.452;2024-02-26T04:29:50;85309.53;;;15.79;50.66
65019;BME280;66069;51.164;-114.452;2024-02-26T04:32:17;85306.88;;;15.79;50.63
65019;BME280;66069;51.164;-114.452;2024-02-26T04:34:43;85315.53;;;15.80;50.59
65019;BME280;66069;51.164;-114.452;2024-02-26T04:37:09;85308.69;;;15.73;50.66
65019;BME280;66069;51.164;-114.452;2024-02-26T04:39:35;85314.81;;;15.79;50.79
65019;BME280;66069;51.164;-114.452;2024-02-26T04:42:01;85312.63;;;15.78;50.80
65019;BME280;66069;51.164;-114.452;2024-02-26T04:44:29;85308.50;;;15.77;50.84
65019;BME280;66069;51.164;-114.452;2024-02-26T04:46:56;85313.78;;;15.77;50.86
65019;BME280;66069;51.164;-114.452;2024-02-26T04:49:22;85300.47;;;15.71;50.55
65019;BME280;66069;51.164;-114.452;2024-02-26T04:51:48;85313.06;;;15.76;50.58
65019;BME280;66069;51.164;-114.452;2024-02-26T04:54:14;85309.88;;;15.72;50.68
65019;BME280;66069;51.164;-114.452;2024-02-26T04:56:41;85305.22;;;15.67;50.60
65019;BME280;66069;51.164;-114.452;2024-02-26T04:59:07;85327.00;;;15.77;50.60
65019;BME280;66069;51.164;-114.452;2024-02-26T05:01:33;85323.63;;;15.76;50.81
65019;BME280;66069;51.164;-114.452;2024-02-26T05:03:59;85313.53;;;15.75;50.68
65019;BME280;66069;51.164;-114.452;2024-02-26T05:06:26;85288.50;;;15.61;50.55
65019;BME280;66069;51.164;-114.452;2024-02-26T05:08:52;85312.53;;;15.72;50.65
65019;BME280;66069;51.164;-114.452;2024-02-26T05:11:18;85307.41;;;15.69;50.67
65019;BME280;66069;51.164;-114.452;2024-02-26T05:13:44;85297.56;;;15.69;50.69
65019;BME280;66069;51.164;-114.452;2024-02-26T05:16:11;85318.53;;;15.73;50.60
65019;BME280;66069;51.164;-114.452;2024-02-26T05:18:37;85311.78;;;15.72;50.57
65019;BME280;66069;51.164;-114.452;2024-02-26T05:21:03;85305.03;;;15.71;50.58
65019;BME280;66069;51.164;-114.452;2024-02-26T05:23:30;85303.31;;;15.68;50.47
65019;BME280;66069;51.164;-114.452;2024-02-26T05:25:56;85311.69;;;15.66;50.44
65019;BME280;66069;51.164;-114.452;2024-02-26T05:28:22;85314.03;;;15.64;50.66
65019;BME280;66069;51.164;-114.452;2024-02-26T05:30:48;85300.25;;;15.60;50.59
65019;BME280;66069;51.164;-114.452;2024-02-26T05:33:14;85306.09;;;15.64;50.51
65019;BME280;66069;51.164;-114.452;2024-02-26T05:35:41;85319.03;;;15.62;50.50
65019;BME280;66069;51.164;-114.452;2024-02-26T05:38:07;85329.44;;;15.66;50.53
65019;BME280;66069;51.164;-114.452;2024-02-26T05:40:33;85327.25;;;15.64;50.77
65019;BME280;66069;51.164;-114.452;2024-02-26T05:43:00;85337.81;;;15.64;50.47
65019;BME280;66069;51.164;-114.452;2024-02-26T05:45:26;85337.22;;;15.60;50.66
65019;BME280;66069;51.164;-114.452;2024-02-26T05:47:53;85343.09;;;15.64;50.35
65019;BME280;66069;51.164;-114.452;2024-02-26T05:50:19;85340.59;;;15.60;50.49
65019;BME280;66069;51.164;-114.452;2024-02-26T05:52:45;85346.59;;;15.61;50.60
65019;BME280;66069;51.164;-114.452;2024-02-26T05:55:12;85360.53;;;15.61;50.53
65019;BME280;66069;51.164;-114.452;2024-02-26T05:57:39;85374.81;;;15.55;50.62
65019;BME280;66069;51.164;-114.452;2024-02-26T06:00:06;85407.81;;;15.59;50.32
65019;BME280;66069;51.164;-114.452;2024-02-26T06:02:32;85418.06;;;15.57;50.29
65019;BME280;66069;51.164;-114.452;2024-02-26T06:04:58;85428.19;;;15.59;50.45
65019;BME280;66069;51.164;-114.452;2024-02-26T06:07:25;85436.56;;;15.57;50.39
65019;BME280;66069;51.164;-114.452;2024-02-26T06:09:51;85435.53;;;15.55;50.30
65019;BME280;66069;51.164;-114.452;2024-02-26T06:12:17;85454.31;;;15.57;50.42
65019;BME280;66069;51.164;-114.452;2024-02-26T06:14:44;85454.03;;;15.55;50.42
65019;BME280;66069;51.164;-114.452;2024-02-26T06:17:10;85445.84;;;15.53;50.44
65019;BME280;66069;51.164;-114.452;2024-02-26T06:19:36;85483.09;;;15.55;50.37
65019;BME280;66069;51.164;-114.452;2024-02-26T06:22:02;85482.50;;;15.51;50.42
65019;BME280;66069;51.164;-114.452;2024-02-26T06:24:29;85483.44;;;15.39;50.42
65019;BME280;66069;51.164;-114.452;2024-02-26T06:26:55;85522.56;;;15.49;50.46
65019;BME280;66069;51.164;-114.452;2024-02-26T06:29:21;85547.78;;;15.50;50.49
65019;BME280;66069;51.164;-114.452;2024-02-26T06:31:47;85548.25;;;15.49;50.39
65019;BME280;66069;51.164;-114.452;2024-02-26T06:34:14;85553.25;;;15.47;50.38
65019;BME280;66069;51.164;-114.452;2024-02-26T06:36:40;85559.97;;;15.48;50.38
65019;BME280;66069;51.164;-114.452;2024-02-26T06:39:06;85575.09;;;15.47;50.42
65019;BME280;66069;51.164;-114.452;2024-02-26T06:41:33;85566.13;;;15.45;50.43
65019;BME280;66069;51.164;-114.452;2024-02-26T06:44:00;85569.09;;;15.47;50.41
65019;BME280;66069;51.164;-114.452;2024-02-26T06:46:26;85567.03;;;15.42;50.36
65019;BME280;66069;51.164;-114.452;2024-02-26T06:48:54;85549.72;;;15.41;50.38
65019;BME280;66069;51.164;-114.452;2024-02-26T06:51:20;85563.94;;;15.43;50.35
65019;BME280;66069;51.164;-114.452;2024-02-26T06:53:46;85585.94;;;15.40;50.26
65019;BME280;66069;51.164;-114.452;2024-02-26T06:56:13;85580.56;;;15.34;50.35
65019;BME280;66069;51.164;-114.452;2024-02-26T06:58:39;85589.75;;;15.39;50.42
65019;BME280;66069;51.164;-114.452;2024-02-26T07:01:05;85595.50;;;15.38;50.46
65019;BME280;66069;51.164;-114.452;2024-02-26T07:03:34;85609.88;;;15.37;50.40
65019;BME280;66069;51.164;-114.452;2024-02-26T07:06:00;85615.88;;;15.37;50.19
65019;BME280;66069;51.164;-114.452;2024-02-26T07:08:26;85619.56;;;15.30;50.32
65019;BME280;66069;51.164;-114.452;2024-02-26T07:10:53;85620.28;;;15.31;50.49
65019;BME280;66069;51.164;-114.452;2024-02-26T07:13:19;85647.69;;;15.33;50.28
65019;BME280;66069;51.164;-114.452;2024-02-26T07:15:46;85625.28;;;15.11;50.38
65019;BME280;66069;51.164;-114.452;2024-02-26T07:18:12;85658.25;;;15.33;50.49
65019;BME280;66069;51.164;-114.452;2024-02-26T07:20:39;85669.72;;;15.30;50.32
65019;BME280;66069;51.164;-114.452;2024-02-26T07:23:05;85678.22;;;15.25;50.47
65019;BME280;66069;51.164;-114.452;2024-02-26T07:25:32;85675.56;;;15.25;50.08
65019;BME280;66069;51.164;-114.452;2024-02-26T07:27:58;85678.94;;;15.26;50.17
65019;BME280;66069;51.164;-114.452;2024-02-26T07:30:25;85677.03;;;15.17;50.14
65019;BME280;66069;51.164;-114.452;2024-02-26T07:32:51;85703.75;;;15.28;50.24
65019;BME280;66069;51.164;-114.452;2024-02-26T07:35:17;85696.69;;;15.25;50.39
65019;BME280;66069;51.164;-114.452;2024-02-26T07:37:43;85692.59;;;15.24;50.27
65019;BME280;66069;51.164;-114.452;2024-02-26T07:40:10;85689.94;;;15.24;50.35
65019;BME280;66069;51.164;-114.452;2024-02-26T07:42:36;85674.69;;;15.19;50.23
65019;BME280;66069;51.164;-114.452;2024-02-26T07:45:02;85691.13;;;15.23;50.19
65019;BME280;66069;51.164;-114.452;2024-02-26T07:47:29;85697.13;;;15.24;50.45
65019;BME280;66069;51.164;-114.452;2024-02-26T07:49:55;85705.50;;;15.22;50.04
65019;BME280;66069;51.164;-114.452;2024-02-26T07:52:21;85700.19;;;15.13;50.10
65019;BME280;66069;51.164;-114.452;2024-02-26T07:54:48;85714.56;;;15.21;50.12
65019;BME280;66069;51.164;-114.452;2024-02-26T07:57:14;85727.19;;;15.17;49.98
65019;BME280;66069;51.164;-114.452;2024-02-26T07:59:43;85752.41;;;15.18;50.45
65019;BME280;66069;51.164;-114.452;2024-02-26T08:02:10;85771.63;;;15.19;50.06
65019;BME280;66069;51.164;-114.452;2024-02-26T08:04:36;85783.34;;;15.18;50.11
65019;BME280;66069;51.164;-114.452;2024-02-26T08:07:03;85784.94;;;15.15;50.00
65019;BME280;66069;51.164;-114.452;2024-02-26T08:09:29;85800.19;;;15.11;50.25
65019;BME280;66069;51.164;-114.452;2024-02-26T08:11:55;85795.31;;;15.00;50.17
65019;BME280;66069;51.164;-114.452;2024-02-26T08:14:21;85825.72;;;15.14;50.21
65019;BME280;66069;51.164;-114.452;2024-02-26T08:16:48;85834.06;;;15.13;49.97
65019;BME280;66069;51.164;-114.452;2024-02-26T08:19:14;85838.75;;;15.08;50.02
65019;BME280;66069;51.164;-114.452;2024-02-26T08:21:41;85852.38;;;15.07;49.72
65019;BME280;66069;51.164;-114.452;2024-02-26T08:24:08;85858.25;;;15.11;50.19
65019;BME280;66069;51.164;-114.452;2024-02-26T08:26:34;85852.66;;;15.09;49.90
65019;BME280;66069;51.164;-114.452;2024-02-26T08:29:00;85870.13;;;15.06;49.93
65019;BME280;66069;51.164;-114.452;2024-02-26T08:31:26;85896.06;;;15.08;50.15
65019;BME280;66069;51.164;-114.452;2024-02-26T08:33:53;85904.13;;;15.04;49.96
65019;BME280;66069;51.164;-114.452;2024-02-26T08:36:19;85902.66;;;15.03;50.00
65019;BME280;66069;51.164;-114.452;2024-02-26T08:38:46;85898.97;;;15.01;49.97
65019;BME280;66069;51.164;-114.452;2024-02-26T08:41:12;85906.44;;;15.02;49.83
65019;BME280;66069;51.164;-114.452;2024-02-26T08:43:38;85911.44;;;15.00;49.92
65019;BME280;66069;51.164;-114.452;2024-02-26T08:46:08;85922.72;;;15.01;49.90
65019;BME280;66069;51.164;-114.452;2024-02-26T08:48:36;85915.25;;;14.99;49.85
65019;BME280;66069;51.164;-114.452;2024-02-26T08:51:06;85939.00;;;14.99;49.54
65019;BME280;66069;51.164;-114.452;2024-02-26T08:53:32;85907.88;;;14.94;49.87
65019;BME280;66069;51.164;-114.452;2024-02-26T08:55:59;85947.34;;;14.98;49.60
65019;BME280;66069;51.164;-114.452;2024-02-26T08:58:25;85939.09;;;14.96;49.54
65019;BME280;66069;51.164;-114.452;2024-02-26T09:00:52;85964.03;;;14.95;49.81
65019;BME280;66069;51.164;-114.452;2024-02-26T09:03:18;85973.66;;;14.89;49.61
65019;BME280;66069;51.164;-114.452;2024-02-26T09:05:44;86000.22;;;14.94;49.56
65019;BME280;66069;51.164;-114.452;2024-02-26T09:08:10;86003.41;;;14.89;49.67
65019;BME280;66069;51.164;-114.452;2024-02-26T09:10:39;86009.03;;;14.91;49.70
65019;BME280;66069;51.164;-114.452;2024-02-26T09:13:05;86019.25;;;14.89;49.66
65019;BME280;66069;51.164;-114.452;2024-02-26T09:15:31;86029.06;;;14.89;49.57
65019;BME280;66069;51.164;-114.452;2024-02-26T09:17:58;86028.78;;;14.87;49.46
65019;BME280;66069;51.164;-114.452;2024-02-26T09:20:24;86026.88;;;14.87;49.47
65019;BME280;66069;51.164;-114.452;2024-02-26T09:22:50;86023.50;;;14.87;49.39
65019;BME280;66069;51.164;-114.452;2024-02-26T09:25:17;86017.94;;;14.85;49.66
65019;BME280;66069;51.164;-114.452;2024-02-26T09:27:44;86024.34;;;14.84;49.29
65019;BME280;66069;51.164;-114.452;2024-02-26T09:30:11;86025.66;;;14.79;49.49
65019;BME280;66069;51.164;-114.452;2024-02-26T09:32:38;86048.66;;;14.78;49.60
65019;BME280;66069;51.164;-114.452;2024-02-26T09:35:05;86030.66;;;14.64;49.30
65019;BME280;66069;51.164;-114.452;2024-02-26T09:37:32;86059.22;;;14.78;49.17
65019;BME280;66069;51.164;-114.452;2024-02-26T09:39:59;86079.06;;;14.70;49.40
65019;BME280;66069;51.164;-114.452;2024-02-26T09:42:26;86087.16;;;14.76;49.68
65019;BME280;66069;51.164;-114.452;2024-02-26T09:44:59;86110.28;;;14.72;49.34
65019;BME280;66069;51.164;-114.452;2024-02-26T09:47:31;86131.06;;;14.70;49.29
65019;BME280;66069;51.164;-114.452;2024-02-26T09:49:59;86124.66;;;14.58;49.51
65019;BME280;66069;51.164;-114.452;2024-02-26T09:52:28;86172.00;;;14.74;49.60
65019;BME280;66069;51.164;-114.452;2024-02-26T09:54:56;86158.94;;;14.58;49.35
65019;BME280;66069;51.164;-114.452;2024-02-26T09:57:23;86176.22;;;14.72;49.30
65019;BME280;66069;51.164;-114.452;2024-02-26T09:59:52;86186.03;;;14.71;49.09
65019;BME280;66069;51.164;-114.452;2024-02-26T10:02:20;86191.13;;;14.66;49.05
65019;BME280;66069;51.164;-114.452;2024-02-26T10:04:47;86210.63;;;14.68;49.24
65019;BME280;66069;51.164;-114.452;2024-02-26T10:07:16;86191.53;;;14.64;49.35
65019;BME280;66069;51.164;-114.452;2024-02-26T10:09:43;86176.47;;;14.52;49.07
65019;BME280;66069;51.164;-114.452;2024-02-26T10:12:11;86202.09;;;14.64;49.10
65019;BME280;66069;51.164;-114.452;2024-02-26T10:14:37;86193.66;;;14.57;49.31
65019;BME280;66069;51.164;-114.452;2024-02-26T10:17:07;86193.66;;;14.57;49.37
65019;BME280;66069;51.164;-114.452;2024-02-26T10:19:36;86201.47;;;14.60;49.27
65019;BME280;66069;51.164;-114.452;2024-02-26T10:22:03;86207.47;;;14.61;48.96
65019;BME280;66069;51.164;-114.452;2024-02-26T10:24:30;86212.03;;;14.60;49.20
65019;BME280;66069;51.164;-114.452;2024-02-26T10:26:57;86220.34;;;14.59;49.22
65019;BME280;66069;51.164;-114.452;2024-02-26T10:29:26;86229.09;;;14.56;49.48
65019;BME280;66069;51.164;-114.452;2024-02-26T10:31:53;86235.22;;;14.52;49.16
65019;BME280;66069;51.164;-114.452;2024-02-26T10:34:20;86260.75;;;14.56;49.02
65019;BME280;66069;51.164;-114.452;2024-02-26T10:36:46;86254.00;;;14.54;49.23
65019;BME280;66069;51.164;-114.452;2024-02-26T10:39:13;86272.47;;;14.54;49.10
65019;BME280;66069;51.164;-114.452;2024-02-26T10:41:44;86268.75;;;14.52;49.04
65019;BME280;66069;51.164;-114.452;2024-02-26T10:44:13;86266.97;;;14.49;49.27
65019;BME280;66069;51.164;-114.452;2024-02-26T10:46:42;86275.63;;;14.49;48.94
65019;BME280;66069;51.164;-114.452;2024-02-26T10:49:15;86267.03;;;14.45;49.08
65019;BME280;66069;51.164;-114.452;2024-02-26T10:51:54;86275.31;;;14.47;48.91
65019;BME280;66069;51.164;-114.452;2024-02-26T10:54:25;86274.31;;;14.41;48.90
65019;BME280;66069;51.164;-114.452;2024-02-26T10:56:53;86287.09;;;14.43;49.28
65019;BME280;66069;51.164;-114.452;2024-02-26T10:59:22;86309.22;;;14.45;49.07
65019;BME280;66069;51.164;-114.452;2024-02-26T11:01:49;86277.78;;;14.38;49.05
65019;BME280;66069;51.164;-114.452;2024-02-26T11:04:17;86293.59;;;14.38;48.99
65019;BME280;66069;51.164;-114.452;2024-02-26T11:06:45;86322.53;;;14.42;48.96
65019;BME280;66069;51.164;-114.452;2024-02-26T11:09:13;86360.56;;;14.41;48.88
65019;BME280;66069;51.164;-114.452;2024-02-26T11:11:40;86360.88;;;14.30;48.82
65019;BME280;66069;51.164;-114.452;2024-02-26T11:14:08;86372.81;;;14.35;49.05
65019;BME280;66069;51.164;-114.452;2024-02-26T11:16:35;86379.88;;;14.38;48.94
65019;BME280;66069;51.164;-114.452;2024-02-26T11:19:04;86410.03;;;14.37;48.97
65019;BME280;66069;51.164;-114.452;2024-02-26T11:21:32;86410.03;;;14.37;49.10
65019;BME280;66069;51.164;-114.452;2024-02-26T11:24:14;86407.47;;;14.33;48.85
65019;BME280;66069;51.164;-114.452;2024-02-26T11:27:04;86405.59;;;14.34;48.79
65019;BME280;66069;51.164;-114.452;2024-02-26T11:29:53;86410.53;;;14.32;48.89
65019;BME280;66069;51.164;-114.452;2024-02-26T11:32:21;86407.25;;;14.27;48.98
65019;BME280;66069;51.164;-114.452;2024-02-26T11:34:48;86406.44;;;14.31;49.02
65019;BME280;66069;51.164;-114.452;2024-02-26T11:37:15;86417.41;;;14.29;48.86
65019;BME280;66069;51.164;-114.452;2024-02-26T11:39:43;86415.50;;;14.30;49.02
65019;BME280;66069;51.164;-114.452;2024-02-26T11:42:15;86420.44;;;14.27;48.86
65019;BME280;66069;51.164;-114.452;2024-02-26T11:44:41;86431.31;;;14.30;48.92
65019;BME280;66069;51.164;-114.452;2024-02-26T11:47:12;86443.03;;;14.28;48.95
65019;BME280;66069;51.164;-114.452;2024-02-26T11:49:38;86444.91;;;14.28;49.15
65019;BME280;66069;51.164;-114.452;2024-02-26T11:52:09;86458.72;;;14.32;49.14
65019;BME280;66069;51.164;-114.452;2024-02-26T11:55:01;86463.69;;;14.30;49.15
65019;BME280;66069;51.164;-114.452;2024-02-26T11:57:46;86473.31;;;14.37;49.23
65019;BME280;66069;51.164;-114.452;2024-02-26T12:00:14;86487.47;;;14.43;49.09
65019;BME280;66069;51.164;-114.452;2024-02-26T12:02:52;86488.94;;;14.44;49.27
65019;BME280;66069;51.164;-114.452;2024-02-26T12:05:31;86503.56;;;14.48;49.41
65019;BME280;66069;51.164;-114.452;2024-02-26T12:08:01;86510.56;;;14.55;49.48
65019;BME280;66069;51.164;-114.452;2024-02-26T12:10:33;86516.13;;;14.57;49.99
65019;BME280;66069;51.164;-114.452;2024-02-26T12:13:12;86506.19;;;14.48;49.89
65019;BME280;66069;51.164;-114.452;2024-02-26T12:15:55;86537.72;;;14.68;49.84
65019;BME280;66069;51.164;-114.452;2024-02-26T12:18:23;86523.06;;;14.67;50.43
65019;BME280;66069;51.164;-114.452;2024-02-26T12:21:02;86525.81;;;14.76;50.27
65019;BME280;66069;51.164;-114.452;2024-02-26T12:23:30;86525.19;;;14.72;50.52
65019;BME280;66069;51.164;-114.452;2024-02-26T12:25:59;86554.25;;;14.85;50.49
65019;BME280;66069;51.164;-114.452;2024-02-26T12:28:29;86519.69;;;14.67;50.58
65019;BME280;66069;51.164;-114.452;2024-02-26T12:30:55;86536.19;;;14.84;50.84